Time;durP1;ratioP1;P1;durP2;ratioP2;P2;SDS_P1;SDS_P2;PMS_P1;PMS_P2;Temp;Humidity;BMP_temperature;BMP_pressure;BME280_temperature;BME280_humidity;BME280_pressure;Samples;Min_cycle;Max_cycle;Signal;HPM_P1;HPM_P2
2023/01/03 00:05:05;;;;;;;16.63;6.20;;;7.00;99.90;;;;;;12589796;28;20396;-87
2023/01/03 00:11:16;;;;;;;10.32;5.80;;;6.90;99.90;;;;;;12575095;28;20040;-87
2023/01/03 00:17:18;;;;;;;14.50;6.78;;;6.90;99.90;;;;;;12587809;28;20044;-86
2023/01/03 00:23:20;;;;;;;13.73;6.82;;;6.80;99.90;;;;;;12577493;28;20051;-86
2023/01/03 00:29:22;;;;;;;13.23;6.68;;;6.80;99.90;;;;;;12571639;28;20060;-87
2023/01/03 00:35:24;;;;;;;12.82;6.68;;;6.60;99.90;;;;;;12585754;28;20049;-86
2023/01/03 00:41:26;;;;;;;14.77;7.25;;;6.60;99.90;;;;;;12589678;28;20052;-86
2023/01/03 00:47:27;;;;;;;11.23;6.40;;;6.60;99.90;;;;;;12586262;28;20122;-87
2023/01/03 00:53:29;;;;;;;13.07;7.68;;;6.40;99.90;;;;;;12568453;28;20060;-86
2023/01/03 00:59:31;;;;;;;13.50;7.40;;;6.40;99.90;;;;;;12600663;28;20048;-87
2023/01/03 01:05:33;;;;;;;12.23;7.63;;;6.50;99.90;;;;;;12588586;28;20181;-87
2023/01/03 01:11:35;;;;;;;18.23;8.27;;;6.40;99.90;;;;;;12599660;28;20150;-86
2023/01/03 01:17:37;;;;;;;13.23;8.18;;;6.30;99.90;;;;;;12594944;28;20137;-87
2023/01/03 01:23:40;;;;;;;16.70;9.38;;;6.20;99.90;;;;;;12584554;28;20492;-86
2023/01/03 01:29:42;;;;;;;20.25;9.32;;;6.10;99.90;;;;;;12588097;28;20052;-86
2023/01/03 01:35:44;;;;;;;16.98;9.40;;;6.00;99.90;;;;;;12503913;28;20158;-86
2023/01/03 01:48:12;;;;;;;21.25;9.77;;;6.00;99.90;;;;;;12491493;28;20053;-87
2023/01/03 01:54:14;;;;;;;15.23;8.55;;;6.00;99.90;;;;;;12502111;28;20041;-86
2023/01/03 02:00:17;;;;;;;20.00;9.90;;;5.90;99.90;;;;;;12488760;28;20053;-87
2023/01/03 02:06:19;;;;;;;17.48;9.60;;;5.80;99.90;;;;;;12480190;28;20049;-87
2023/01/03 02:19:20;;;;;;;19.05;10.45;;;5.80;99.90;;;;;;12478091;28;20056;-86
2023/01/03 02:25:34;;;;;;;17.55;11.30;;;5.80;99.90;;;;;;12485073;28;20049;-87
2023/01/03 02:31:56;;;;;;;17.97;11.90;;;5.90;99.90;;;;;;12497409;28;20139;-86
2023/01/03 02:38:34;;;;;;;19.35;13.25;;;6.10;99.90;;;;;;12569000;28;20047;-86
2023/01/03 02:44:39;;;;;;;22.88;13.93;;;6.10;99.90;;;;;;12587769;28;20127;-87
2023/01/03 02:50:50;;;;;;;20.95;13.35;;;6.10;99.90;;;;;;12567509;28;20123;-87
2023/01/03 02:57:05;;;;;;;25.02;13.52;;;6.20;99.90;;;;;;12571834;28;20127;-87
2023/01/03 03:03:13;;;;;;;25.25;14.57;;;6.20;99.90;;;;;;12572574;28;20402;-87
2023/01/03 03:09:15;;;;;;;23.73;14.95;;;6.30;99.90;;;;;;12569307;28;20400;-87
2023/01/03 03:15:21;;;;;;;30.15;17.58;;;6.30;99.90;;;;;;12567794;28;20053;-87
2023/01/03 03:34:19;;;;;;;21.67;13.27;;;6.30;99.90;;;;;;12588357;28;20048;-87
2023/01/03 03:46:50;;;;;;;20.70;13.77;;;6.30;99.90;;;;;;12602150;28;20044;-87
2023/01/03 03:53:03;;;;;;;22.65;13.70;;;6.30;99.90;;;;;;12558243;28;20093;-87
2023/01/03 03:59:08;;;;;;;21.55;13.85;;;6.30;99.90;;;;;;12572703;28;20196;-87
2023/01/03 04:05:12;;;;;;;24.60;14.88;;;6.30;99.90;;;;;;12563626;28;20044;-87
2023/01/03 04:11:14;;;;;;;22.20;14.00;;;6.20;99.90;;;;;;12587645;28;20113;-87
2023/01/03 04:17:16;;;;;;;26.00;16.08;;;6.30;99.90;;;;;;12588316;28;20179;-87
2023/01/03 04:23:17;;;;;;;24.52;15.65;;;6.30;99.90;;;;;;12570453;28;20074;-87
2023/01/03 04:29:19;;;;;;;24.98;15.07;;;6.30;99.90;;;;;;12587179;28;20056;-87
2023/01/03 04:35:21;;;;;;;23.73;14.57;;;6.20;99.90;;;;;;12579141;28;20101;-87
2023/01/03 04:41:23;;;;;;;21.15;13.52;;;6.10;99.90;;;;;;12586050;28;20132;-87
2023/01/03 04:47:25;;;;;;;21.33;13.30;;;6.10;99.90;;;;;;12587504;28;20044;-87
2023/01/03 04:53:26;;;;;;;21.20;13.05;;;6.00;99.90;;;;;;12585466;28;20484;-87
2023/01/03 04:59:28;;;;;;;19.05;12.60;;;6.00;99.90;;;;;;12592822;28;20113;-87
2023/01/03 05:05:30;;;;;;;21.88;12.52;;;5.90;99.90;;;;;;12588351;28;20059;-87
2023/01/03 05:11:32;;;;;;;19.70;12.43;;;5.70;99.90;;;;;;12585288;28;20064;-87
2023/01/03 05:17:33;;;;;;;18.70;12.52;;;5.60;99.90;;;;;;12596859;28;20044;-87
2023/01/03 05:29:56;;;;;;;24.95;13.85;;;5.50;99.90;;;;;;12587336;28;20041;-86
2023/01/03 05:35:58;;;;;;;28.90;14.77;;;5.60;99.90;;;;;;12585397;28;20046;-86
2023/01/03 05:42:00;;;;;;;31.02;18.27;;;5.60;99.90;;;;;;12566314;28;20045;-86
2023/01/03 05:48:01;;;;;;;29.70;18.30;;;5.60;99.90;;;;;;12580571;28;20110;-86
2023/01/03 05:54:03;;;;;;;32.75;19.60;;;5.70;99.90;;;;;;12580742;28;20044;-86
2023/01/03 06:00:06;;;;;;;33.97;20.60;;;5.70;99.90;;;;;;12576303;28;20424;-86
2023/01/03 06:06:10;;;;;;;33.30;21.17;;;5.60;99.90;;;;;;12588677;28;20105;-86
2023/01/03 06:12:12;;;;;;;37.47;23.02;;;5.60;99.90;;;;;;12585418;28;20041;-86
2023/01/03 06:18:14;;;;;;;40.35;23.35;;;5.60;99.90;;;;;;12581481;28;20153;-86
2023/01/03 06:24:16;;;;;;;33.40;21.75;;;5.50;99.90;;;;;;12569662;28;20512;-86
2023/01/03 06:30:18;;;;;;;39.25;22.33;;;5.40;99.90;;;;;;12581308;28;20049;-86
2023/01/03 06:36:22;;;;;;;32.85;20.95;;;5.40;99.90;;;;;;12567498;28;20053;-86
2023/01/03 06:42:39;;;;;;;36.03;21.50;;;5.30;99.90;;;;;;12585974;28;20045;-86
2023/01/03 06:55:02;;;;;;;33.65;20.05;;;5.20;99.90;;;;;;12579173;28;20047;-85
2023/01/03 07:01:05;;;;;;;32.60;19.33;;;5.10;99.90;;;;;;12579073;28;20040;-86
2023/01/03 07:07:07;;;;;;;31.63;18.27;;;5.00;99.90;;;;;;12566896;28;20503;-86
2023/01/03 07:19:29;;;;;;;32.20;19.55;;;4.90;99.90;;;;;;12584521;28;20060;-86
2023/01/03 07:25:31;;;;;;;33.45;20.70;;;4.90;99.90;;;;;;12586603;28;20040;-86
2023/01/03 07:31:33;;;;;;;34.90;19.15;;;4.90;99.90;;;;;;12561800;28;20050;-87
2023/01/03 07:37:34;;;;;;;39.42;21.20;;;4.80;99.90;;;;;;12583536;28;20186;-86
2023/01/03 07:43:39;;;;;;;37.20;21.77;;;4.90;99.90;;;;;;12573789;28;20126;-86
2023/01/03 07:49:40;;;;;;;36.90;22.80;;;4.90;99.90;;;;;;12583037;28;21771;-86
2023/01/03 07:55:44;;;;;;;37.05;21.98;;;4.90;99.90;;;;;;12587473;28;20070;-86
2023/01/03 08:01:46;;;;;;;34.65;21.73;;;4.80;99.90;;;;;;12580502;28;20553;-86
2023/01/03 08:07:49;;;;;;;37.90;21.83;;;4.80;99.90;;;;;;12577442;28;20084;-86
2023/01/03 08:13:51;;;;;;;37.35;20.63;;;4.70;99.90;;;;;;12603495;28;20110;-86
2023/01/03 08:19:53;;;;;;;39.28;21.95;;;4.70;99.90;;;;;;12576067;28;20173;-86
2023/01/03 08:26:04;;;;;;;37.90;21.95;;;4.80;99.90;;;;;;12583811;28;20052;-86
2023/01/03 08:32:06;;;;;;;35.63;20.38;;;4.70;99.90;;;;;;12587031;28;20055;-86
2023/01/03 08:38:13;;;;;;;41.67;22.95;;;4.80;99.90;;;;;;12586867;28;20098;-86
2023/01/03 08:44:15;;;;;;;34.35;20.38;;;4.80;99.90;;;;;;12574951;28;20044;-86
2023/01/03 08:50:17;;;;;;;35.13;20.40;;;4.80;99.90;;;;;;12593292;28;21385;-86
2023/01/03 08:56:20;;;;;;;36.15;18.77;;;4.90;99.90;;;;;;12606230;28;20118;-86
2023/01/03 09:02:21;;;;;;;29.98;18.35;;;5.00;99.90;;;;;;12594134;28;20618;-86
2023/01/03 09:08:23;;;;;;;33.83;18.13;;;5.10;99.90;;;;;;12602058;28;20056;-86
2023/01/03 09:14:25;;;;;;;27.95;18.17;;;5.20;99.90;;;;;;12567153;28;20045;-86
2023/01/03 09:20:27;;;;;;;26.70;15.98;;;5.30;99.90;;;;;;12599984;28;20040;-86
2023/01/03 09:26:29;;;;;;;30.00;15.82;;;5.40;99.90;;;;;;12595820;28;20052;-86
2023/01/03 09:32:31;;;;;;;26.92;14.98;;;5.50;99.90;;;;;;12566730;28;20139;-86
2023/01/03 09:38:33;;;;;;;25.77;14.60;;;5.60;99.90;;;;;;12611716;28;20044;-86
2023/01/03 09:44:36;;;;;;;27.73;14.13;;;5.70;99.90;;;;;;12569614;28;20823;-86
2023/01/03 09:50:38;;;;;;;26.90;15.18;;;5.80;99.90;;;;;;12572450;28;20055;-86
2023/01/03 10:03:44;;;;;;;23.00;14.00;;;6.10;99.90;;;;;;12587181;28;20043;-86
2023/01/03 10:09:58;;;;;;;23.73;12.85;;;6.10;99.90;;;;;;12593779;28;20052;-86
2023/01/03 10:16:39;;;;;;;18.08;12.23;;;6.20;99.90;;;;;;12609751;28;20089;-86
2023/01/03 10:22:41;;;;;;;19.83;10.23;;;6.40;99.90;;;;;;12573256;28;20412;-86
2023/01/03 10:28:44;;;;;;;16.38;10.02;;;6.50;99.90;;;;;;12579320;28;20060;-86
2023/01/03 10:35:03;;;;;;;19.27;9.87;;;6.50;99.90;;;;;;12576555;28;20489;-86
2023/01/03 10:41:19;;;;;;;15.07;9.82;;;6.70;99.90;;;;;;12594925;28;20050;-86
2023/01/03 10:47:24;;;;;;;15.57;8.93;;;6.90;99.90;;;;;;12583153;28;20052;-86
2023/01/03 10:53:27;;;;;;;12.77;7.70;;;7.00;99.90;;;;;;12579168;28;20051;-86
2023/01/03 10:59:31;;;;;;;12.10;7.28;;;7.20;99.90;;;;;;12587456;28;20044;-85
2023/01/03 11:05:32;;;;;;;11.82;7.75;;;7.20;99.90;;;;;;12587822;28;20059;-86
2023/01/03 11:11:38;;;;;;;12.00;6.45;;;7.50;99.90;;;;;;12583784;28;20045;-86
2023/01/03 11:17:57;;;;;;;10.52;6.28;;;7.60;99.90;;;;;;12596763;28;20044;-86
2023/01/03 11:24:11;;;;;;;12.45;6.30;;;7.70;99.90;;;;;;12580574;28;20037;-86
2023/01/03 11:30:13;;;;;;;;;;;8.00;99.90;;;;;;12564861;28;20053;-86
2023/01/03 11:36:23;;;;;;;10.63;4.30;;;8.20;99.90;;;;;;12567145;28;19925;-86
2023/01/03 11:42:49;;;;;;;7.32;4.05;;;8.10;99.90;;;;;;12591240;28;20051;-86
2023/01/03 11:49:23;;;;;;;7.53;3.72;;;8.10;99.90;;;;;;12579176;28;20044;-86
2023/01/03 11:55:55;;;;;;;9.65;4.28;;;7.80;99.90;;;;;;12567968;28;20036;-86
2023/01/03 12:02:54;;;;;;;5.75;3.60;;;7.70;99.90;;;;;;12562609;28;20033;-86
2023/01/03 12:09:09;;;;;;;7.82;3.90;;;7.60;99.90;;;;;;12390583;28;20054;-86
2023/01/03 12:15:20;;;;;;;9.40;4.00;;;7.70;99.90;;;;;;12563436;28;20101;-86
2023/01/03 12:21:32;;;;;;;9.77;3.20;;;7.60;99.90;;;;;;12588225;28;20096;-86
2023/01/03 12:27:40;;;;;;;11.07;3.60;;;7.50;99.90;;;;;;12566498;28;20052;-86
2023/01/03 12:33:49;;;;;;;5.95;3.30;;;7.50;99.90;;;;;;12555264;28;20052;-86
2023/01/03 12:39:55;;;;;;;8.45;2.95;;;7.60;99.90;;;;;;12592149;28;20139;-86
2023/01/03 12:46:20;;;;;;;5.88;2.80;;;7.70;99.90;;;;;;12586034;28;20135;-86
2023/01/03 12:52:24;;;;;;;6.00;2.55;;;7.70;99.90;;;;;;12609409;28;20051;-86
2023/01/03 12:58:41;;;;;;;4.80;2.58;;;7.70;99.90;;;;;;12597887;28;20060;-86
2023/01/03 13:04:45;;;;;;;5.40;2.85;;;7.80;99.90;;;;;;12583857;28;20080;-86
2023/01/03 13:10:49;;;;;;;6.60;2.93;;;8.00;99.90;;;;;;12572425;28;20078;-86
2023/01/03 13:16:53;;;;;;;9.35;3.30;;;8.10;99.90;;;;;;12596331;28;20309;-86
2023/01/03 13:23:01;;;;;;;7.87;2.77;;;8.10;99.90;;;;;;12591423;28;20088;-86
2023/01/03 13:29:42;;;;;;;9.07;2.78;;;8.10;99.90;;;;;;12591634;28;20137;-86
2023/01/03 13:35:44;;;;;;;5.10;2.70;;;8.10;99.90;;;;;;12565415;28;20494;-86
2023/01/03 13:41:52;;;;;;;7.05;2.70;;;8.10;99.90;;;;;;12575446;28;20421;-86
2023/01/03 13:47:55;;;;;;;7.82;2.83;;;8.00;99.90;;;;;;12581747;28;20052;-86
2023/01/03 13:54:17;;;;;;;8.07;2.88;;;8.10;99.90;;;;;;12572485;28;20090;-86
2023/01/03 14:00:21;;;;;;;6.60;2.50;;;8.10;99.90;;;;;;12531126;28;20063;-86
2023/01/03 14:07:04;;;;;;;10.13;2.83;;;8.10;99.90;;;;;;12587092;28;20048;-86
2023/01/03 14:13:40;;;;;;;7.18;2.42;;;8.00;99.90;;;;;;12554342;28;20041;-86
2023/01/03 14:19:50;;;;;;;8.10;2.25;;;8.10;99.90;;;;;;12599179;28;20049;-86
2023/01/03 14:25:53;;;;;;;7.00;2.92;;;8.10;99.90;;;;;;12573720;28;20051;-86
2023/01/03 14:31:55;;;;;;;7.18;2.90;;;8.20;99.90;;;;;;12587128;28;20059;-86
2023/01/03 14:37:57;;;;;;;5.63;2.80;;;8.20;99.90;;;;;;12568663;28;20048;-86
2023/01/03 14:44:10;;;;;;;7.88;2.85;;;8.20;99.90;;;;;;12584829;28;20036;-86
2023/01/03 14:50:25;;;;;;;7.72;2.92;;;8.20;99.90;;;;;;12595491;28;20045;-86
2023/01/03 14:56:28;;;;;;;5.57;2.80;;;8.20;99.90;;;;;;12574297;28;20121;-86
2023/01/03 15:02:35;;;;;;;7.47;2.60;;;8.00;99.90;;;;;;12572157;28;20044;-86
2023/01/03 15:08:42;;;;;;;5.03;2.72;;;7.90;99.90;;;;;;12591852;28;20432;-86
2023/01/03 15:14:43;;;;;;;8.05;3.30;;;7.90;99.90;;;;;;12578124;28;20427;-86
2023/01/03 15:20:48;;;;;;;6.35;2.58;;;7.90;99.90;;;;;;12574026;28;20048;-86
2023/01/03 15:26:52;;;;;;;5.57;2.53;;;7.90;99.90;;;;;;12589371;28;20207;-86
2023/01/03 15:33:17;;;;;;;4.70;2.40;;;7.90;99.90;;;;;;12566479;28;20468;-86
2023/01/03 15:39:24;;;;;;;6.72;2.67;;;7.80;99.90;;;;;;12569597;28;20135;-86
2023/01/03 15:45:29;;;;;;;7.18;2.33;;;7.80;99.90;;;;;;12589226;28;20040;-86
2023/01/03 15:51:30;;;;;;;7.38;2.70;;;7.80;99.90;;;;;;12588148;28;20417;-85
2023/01/03 15:57:33;;;;;;;5.32;2.50;;;7.80;99.90;;;;;;12562268;28;20048;-86
2023/01/03 16:03:34;;;;;;;7.68;2.47;;;7.80;99.90;;;;;;12590985;28;20040;-86
2023/01/03 16:09:37;;;;;;;9.15;2.95;;;7.70;99.90;;;;;;12590918;28;20040;-85
2023/01/03 16:15:42;;;;;;;6.13;2.60;;;7.70;99.90;;;;;;12581266;28;20062;-86
2023/01/03 16:21:45;;;;;;;6.18;2.38;;;7.70;99.90;;;;;;12585261;28;20040;-85
2023/01/03 16:28:07;;;;;;;7.43;2.95;;;7.70;99.90;;;;;;12588402;28;20091;-85
2023/01/03 16:34:19;;;;;;;4.78;2.75;;;7.80;99.90;;;;;;12591219;28;20093;-85
2023/01/03 16:40:21;;;;;;;5.28;2.58;;;7.80;99.90;;;;;;12571630;28;20052;-86
2023/01/03 16:46:24;;;;;;;10.23;2.40;;;7.70;99.90;;;;;;12600542;28;20183;-86
2023/01/03 16:52:36;;;;;;;6.60;2.93;;;7.70;99.90;;;;;;12605422;28;20040;-86
2023/01/03 16:58:38;;;;;;;8.90;3.17;;;7.70;99.90;;;;;;12589790;28;20131;-86
2023/01/03 17:04:40;;;;;;;8.63;3.45;;;7.70;99.90;;;;;;12562526;28;20060;-86
2023/01/03 17:10:45;;;;;;;9.02;3.55;;;7.50;99.90;;;;;;12571173;28;20040;-86
2023/01/03 17:16:48;;;;;;;5.80;3.13;;;7.50;99.90;;;;;;12602427;28;20450;-86
2023/01/03 17:22:59;;;;;;;6.18;3.20;;;7.50;99.90;;;;;;12577988;28;20064;-86
2023/01/03 17:29:03;;;;;;;6.50;2.83;;;7.40;99.90;;;;;;12620495;28;20048;-86
2023/01/03 17:35:10;;;;;;;7.55;3.00;;;7.30;99.90;;;;;;12592164;28;20045;-86
2023/01/03 17:41:17;;;;;;;6.85;2.95;;;7.20;99.90;;;;;;12582148;28;20049;-86
2023/01/03 17:53:42;;;;;;;8.38;2.80;;;7.10;99.90;;;;;;12582148;28;20041;-86
2023/01/03 17:59:44;;;;;;;10.77;3.03;;;7.10;99.90;;;;;;12575834;28;20048;-86
2023/01/03 18:05:46;;;;;;;5.40;2.25;;;7.10;99.90;;;;;;12574063;28;20045;-86
2023/01/03 18:11:48;;;;;;;4.03;1.83;;;7.20;99.90;;;;;;12588877;28;20485;-86
2023/01/03 18:17:51;;;;;;;6.88;2.35;;;7.20;99.90;;;;;;12574544;28;20412;-85
2023/01/03 18:23:57;;;;;;;7.95;2.20;;;7.20;99.90;;;;;;12603088;28;20029;-85
2023/01/03 18:29:59;;;;;;;6.30;1.95;;;7.10;99.90;;;;;;12590637;28;20080;-85
2023/01/03 18:36:01;;;;;;;7.63;2.20;;;7.20;99.90;;;;;;12590845;28;20093;-86
2023/01/03 18:48:23;;;;;;;5.97;2.35;;;6.90;99.90;;;;;;12585174;28;20161;-85
2023/01/03 18:54:25;;;;;;;8.60;2.72;;;6.90;99.90;;;;;;12598770;28;20143;-85
2023/01/03 19:00:27;;;;;;;6.72;2.70;;;6.70;99.90;;;;;;12580681;28;20048;-85
2023/01/03 19:06:30;;;;;;;10.43;3.50;;;6.70;99.90;;;;;;12599797;28;20051;-86
2023/01/03 19:12:37;;;;;;;6.78;3.70;;;6.70;99.90;;;;;;12587217;28;20044;-85
2023/01/03 19:18:39;;;;;;;9.73;4.22;;;6.70;99.90;;;;;;12590189;28;20072;-85
2023/01/03 19:24:40;;;;;;;7.18;3.08;;;6.60;99.90;;;;;;12591413;28;20044;-85
2023/01/03 19:30:45;;;;;;;6.43;3.00;;;6.60;99.90;;;;;;12569546;28;20060;-85
2023/01/03 19:36:47;;;;;;;4.32;2.38;;;6.60;99.90;;;;;;12567639;28;20109;-86
2023/01/03 19:42:53;;;;;;;4.65;2.03;;;6.60;99.90;;;;;;12569105;28;20132;-85
2023/01/03 19:48:55;;;;;;;6.60;2.38;;;6.60;99.90;;;;;;12569895;28;20554;-85
2023/01/03 19:54:56;;;;;;;6.95;2.30;;;6.50;99.90;;;;;;12589633;28;20119;-85
2023/01/03 20:00:58;;;;;;;6.30;1.70;;;6.50;99.90;;;;;;12590913;28;20048;-85
2023/01/03 20:07:00;;;;;;;6.40;1.85;;;6.50;99.90;;;;;;12597348;28;20048;-85
2023/01/03 20:13:04;;;;;;;4.88;1.88;;;6.60;99.90;;;;;;12569974;28;20040;-85
2023/01/03 20:19:14;;;;;;;6.68;1.63;;;6.60;99.90;;;;;;12582777;28;20404;-85
2023/01/03 20:25:31;;;;;;;2.88;1.20;;;6.50;99.90;;;;;;12583819;28;20485;-85
2023/01/03 20:31:32;;;;;;;4.93;1.30;;;6.50;99.90;;;;;;12601647;28;20055;-85
2023/01/03 20:37:34;;;;;;;4.65;1.42;;;6.50;99.90;;;;;;12584949;28;20076;-84
2023/01/03 20:43:36;;;;;;;10.65;1.60;;;6.50;99.90;;;;;;12600204;28;20034;-85
2023/01/03 20:49:41;;;;;;;3.15;1.52;;;6.50;99.90;;;;;;12656116;28;20032;-85
2023/01/03 20:55:43;;;;;;;4.82;1.40;;;6.60;99.90;;;;;;12648966;28;20044;-87
2023/01/03 21:01:47;;;;;;;7.63;1.63;;;6.70;99.90;;;;;;12637458;28;20076;-84
2023/01/03 21:14:09;;;;;;;4.38;1.20;;;6.60;99.90;;;;;;12653734;28;20473;-85
2023/01/03 21:20:20;;;;;;;7.82;2.00;;;6.60;99.90;;;;;;12598942;28;20484;-86
2023/01/03 21:26:22;;;;;;;4.53;1.20;;;6.60;99.90;;;;;;12594157;28;20075;-86
2023/01/03 21:32:23;;;;;;;9.38;1.92;;;6.60;99.90;;;;;;12595880;28;20056;-87
2023/01/03 21:38:25;;;;;;;6.43;1.60;;;6.50;99.90;;;;;;12601359;28;20524;-86
2023/01/03 21:44:28;;;;;;;3.13;1.30;;;6.50;99.90;;;;;;12581379;28;20032;-87
2023/01/03 21:50:31;;;;;;;6.22;1.48;;;6.50;99.90;;;;;;12570751;28;20048;-87
2023/01/03 21:56:36;;;;;;;6.25;1.33;;;6.50;99.90;;;;;;12580093;28;20051;-86
2023/01/03 22:09:03;;;;;;;5.18;1.45;;;6.60;99.90;;;;;;12581241;28;20411;-86
2023/01/03 22:15:05;;;;;;;4.03;1.33;;;6.70;99.90;;;;;;12597601;28;20048;-87
2023/01/03 22:21:10;;;;;;;3.72;1.80;;;6.70;99.90;;;;;;12605912;28;20167;-87
2023/01/03 22:27:11;;;;;;;8.52;1.27;;;6.60;99.90;;;;;;12580315;28;20048;-86
2023/01/03 22:33:13;;;;;;;5.55;1.20;;;6.60;99.90;;;;;;12596636;28;20143;-87
2023/01/03 22:39:15;;;;;;;3.65;1.20;;;6.60;99.90;;;;;;12572568;28;20426;-87
2023/01/03 22:45:16;;;;;;;6.68;1.02;;;6.40;99.90;;;;;;12584736;28;20043;-85
2023/01/03 22:51:20;;;;;;;4.85;1.00;;;6.50;99.90;;;;;;12569848;28;20409;-86
2023/01/03 22:57:22;;;;;;;4.80;1.00;;;6.50;99.90;;;;;;12586878;28;20044;-86
2023/01/03 23:03:24;;;;;;;9.60;1.52;;;6.50;99.90;;;;;;12561807;28;20048;-87
2023/01/03 23:09:25;;;;;;;4.47;0.88;;;6.50;99.90;;;;;;12579115;28;20056;-85
2023/01/03 23:15:29;;;;;;;3.25;1.17;;;6.50;99.90;;;;;;12582584;28;20048;-86
2023/01/03 23:21:32;;;;;;;3.27;1.23;;;6.40;99.90;;;;;;12593428;28;20404;-86
2023/01/03 23:27:34;;;;;;;8.07;0.93;;;6.50;99.90;;;;;;12595682;28;20048;-86
2023/01/03 23:33:36;;;;;;;2.85;0.80;;;6.50;99.90;;;;;;12579454;28;20052;-88
2023/01/03 23:39:38;;;;;;;6.90;0.95;;;6.40;99.90;;;;;;12565052;28;20071;-86
2023/01/03 23:45:40;;;;;;;8.85;0.88;;;6.50;99.90;;;;;;12575766;28;20052;-86
2023/01/03 23:51:42;;;;;;;4.32;0.88;;;6.50;99.90;;;;;;12567293;28;20128;-86
2023/01/03 23:57:44;;;;;;;6.10;1.23;;;6.50;99.90;;;;;;12585792;28;20058;-86
